createdAt,value
2023-05-25T00:00:11.680Z,101623.13
2023-05-25T00:02:46.652Z,101623.94
2023-05-25T00:05:14.707Z,101624.59
2023-05-25T00:07:42.191Z,101627.31
2023-05-25T00:10:14.675Z,101625.59
2023-05-25T00:12:44.763Z,101632.22
2023-05-25T00:15:12.437Z,101626.94
2023-05-25T00:17:55.095Z,101635.72
2023-05-25T00:20:22.588Z,101632.28
2023-05-25T00:22:50.367Z,101626.03
2023-05-25T00:25:24.786Z,101630.75
2023-05-25T00:27:52.245Z,101624.91
2023-05-25T00:30:19.657Z,101629.13
2023-05-25T00:32:47.896Z,101625.06
2023-05-25T00:35:24.447Z,101628.16
2023-05-25T00:37:59.385Z,101621.59
2023-05-25T00:40:27.019Z,101617.56
2023-05-25T00:42:56.463Z,101616.13
2023-05-25T00:45:24.865Z,101614.88
2023-05-25T00:48:00.919Z,101616.47
2023-05-25T00:50:53.916Z,101615.03
2023-05-25T00:53:27.882Z,101624.16
2023-05-25T00:56:38.759Z,101616.09
2023-05-25T01:00:21.356Z,101616.03
2023-05-25T01:03:30.078Z,101621.19
2023-05-25T01:06:22.046Z,101613.41
2023-05-25T01:09:27.039Z,101619.41
2023-05-25T01:14:54.435Z,101621.34
2023-05-25T01:17:25.727Z,101616.16
2023-05-25T01:20:09.789Z,101618.22
2023-05-25T01:22:57.662Z,101623.75
2023-05-25T01:25:43.296Z,101623.09
2023-05-25T01:28:34.361Z,101620.88
2023-05-25T01:31:03.243Z,101622.44
2023-05-25T01:33:45.223Z,101622.97
2023-05-25T01:36:21.485Z,101620.22
2023-05-25T01:38:50.586Z,101627.34
2023-05-25T01:41:32.072Z,101625.50
2023-05-25T01:44:02.800Z,101631.84
2023-05-25T01:46:49.735Z,101624.13
2023-05-25T01:50:14.478Z,101632.84
2023-05-25T01:53:22.154Z,101624.41
2023-05-25T01:56:56.565Z,101627.41
2023-05-25T01:59:08.032Z,101631.41
2023-05-25T02:01:41.352Z,101631.53
2023-05-25T02:04:21.276Z,101630.38
2023-05-25T02:07:57.971Z,101626.06
2023-05-25T02:10:31.729Z,101631.00
2023-05-25T02:15:47.990Z,101618.84
2023-05-25T02:18:49.777Z,101622.63
2023-05-25T02:24:05.717Z,101629.69
2023-05-25T02:26:40.288Z,101631.25
2023-05-25T02:29:07.643Z,101630.91
2023-05-25T02:31:35.059Z,101631.72
2023-05-25T02:34:03.161Z,101637.66
2023-05-25T02:36:31.836Z,101636.69
2023-05-25T02:38:59.901Z,101629.19
2023-05-25T02:41:27.936Z,101638.44
2023-05-25T02:43:55.907Z,101630.31
2023-05-25T02:46:24.072Z,101638.69
2023-05-25T02:49:04.398Z,101632.72
2023-05-25T02:51:32.618Z,101640.22
2023-05-25T02:54:08.785Z,101638.44
2023-05-25T02:56:36.204Z,101632.91
2023-05-25T02:59:03.746Z,101630.19
2023-05-25T03:01:38.495Z,101634.16
2023-05-25T03:04:06.184Z,101635.53
2023-05-25T03:06:33.787Z,101632.66
2023-05-25T03:09:01.449Z,101631.38
2023-05-25T03:11:41.888Z,101628.63
2023-05-25T03:14:11.663Z,101626.22
2023-05-25T03:16:47.336Z,101630.91
2023-05-25T03:19:16.122Z,101631.50
2023-05-25T03:21:45.080Z,101633.91
2023-05-25T03:24:14.656Z,101636.91
2023-05-25T03:26:42.391Z,101638.09
2023-05-25T03:29:09.717Z,101641.22
2023-05-25T03:31:37.150Z,101645.84
2023-05-25T03:34:06.311Z,101649.66
2023-05-25T03:36:40.168Z,101644.53
2023-05-25T03:39:07.406Z,101648.22
2023-05-25T03:41:34.864Z,101646.50
2023-05-25T03:44:02.102Z,101644.50
2023-05-25T03:46:29.346Z,101640.81
2023-05-25T03:48:57.403Z,101641.94
2023-05-25T03:51:25.185Z,101638.59
2023-05-25T03:53:55.582Z,101645.94
2023-05-25T03:56:26.801Z,101650.53
2023-05-25T03:58:55.423Z,101662.78
2023-05-25T04:01:26.681Z,101666.44
2023-05-25T04:04:06.789Z,101666.19
2023-05-25T04:06:39.754Z,101665.44
2023-05-25T04:09:18.698Z,101672.19
2023-05-25T04:11:46.612Z,101676.81
2023-05-25T04:14:21.922Z,101680.34
2023-05-25T04:16:49.722Z,101671.34
2023-05-25T04:19:17.332Z,101674.53
2023-05-25T04:21:45.521Z,101679.19
2023-05-25T04:24:13.489Z,101685.00
2023-05-25T04:26:52.397Z,101683.81
2023-05-25T04:29:19.715Z,101688.19
2023-05-25T04:31:47.651Z,101691.44
2023-05-25T04:34:48.508Z,101687.00
2023-05-25T04:37:19.999Z,101681.72
2023-05-25T04:39:47.121Z,101681.94
2023-05-25T04:42:14.523Z,101692.88
2023-05-25T04:44:41.853Z,101691.34
2023-05-25T04:47:16.656Z,101687.63
2023-05-25T04:49:44.108Z,101681.50
2023-05-25T04:52:11.741Z,101676.78
2023-05-25T04:54:39.321Z,101677.44
2023-05-25T04:57:17.553Z,101684.31
2023-05-25T04:59:47.288Z,101677.34
2023-05-25T05:02:14.635Z,101673.28
2023-05-25T05:04:42.401Z,101667.00
2023-05-25T05:07:10.484Z,101677.38
2023-05-25T05:09:38.427Z,101676.19
2023-05-25T05:12:07.716Z,101676.00
2023-05-25T05:14:36.421Z,101682.03
2023-05-25T05:17:12.803Z,101678.63
2023-05-25T05:19:40.182Z,101678.78
2023-05-25T05:22:09.757Z,101686.44
2023-05-25T05:24:36.963Z,101688.31
2023-05-25T05:27:04.948Z,101693.75
2023-05-25T05:29:34.267Z,101692.59
2023-05-25T05:32:10.435Z,101691.84
2023-05-25T05:34:38.198Z,101696.91
2023-05-25T05:37:05.935Z,101702.16
2023-05-25T05:39:33.374Z,101701.75
2023-05-25T05:42:01.419Z,101699.03
2023-05-25T05:44:29.467Z,101709.84
2023-05-25T05:47:06.679Z,101712.47
2023-05-25T05:49:38.976Z,101710.88
2023-05-25T05:52:38.835Z,101703.59
2023-05-25T05:55:14.240Z,101702.31
2023-05-25T05:57:49.093Z,101713.50
2023-05-25T06:00:30.910Z,101709.34
2023-05-25T06:03:00.900Z,101714.38
2023-05-25T06:05:28.876Z,101717.44
2023-05-25T06:08:12.580Z,101726.63
2023-05-25T06:10:40.674Z,101722.16
2023-05-25T06:13:11.261Z,101718.44
2023-05-25T06:15:41.915Z,101720.16
2023-05-25T06:18:11.856Z,101721.22
2023-05-25T06:20:39.324Z,101721.47
2023-05-25T06:23:12.524Z,101719.56
2023-05-25T06:25:43.958Z,101730.75
2023-05-25T06:28:11.596Z,101724.59
2023-05-25T06:30:38.783Z,101724.44
2023-05-25T06:33:06.153Z,101717.94
2023-05-25T06:35:33.751Z,101724.34
2023-05-25T06:38:01.852Z,101721.34
2023-05-25T06:40:29.320Z,101721.16
2023-05-25T06:42:59.900Z,101725.66
2023-05-25T06:45:27.328Z,101725.84
2023-05-25T06:47:55.109Z,101732.63
2023-05-25T06:50:38.721Z,101732.06
2023-05-25T06:53:17.696Z,101731.88
2023-05-25T06:55:58.235Z,101726.00
2023-05-25T06:58:27.726Z,101732.41
2023-05-25T07:00:55.269Z,101732.97
2023-05-25T07:03:22.689Z,101720.28
2023-05-25T07:05:50.625Z,101726.63
2023-05-25T07:08:38.940Z,101735.56
2023-05-25T07:11:14.648Z,101736.78
2023-05-25T07:13:41.914Z,101729.97
2023-05-25T07:16:09.260Z,101727.31
2023-05-25T07:18:41.189Z,101737.34
2023-05-25T07:21:10.172Z,101727.53
2023-05-25T07:23:41.512Z,101723.28
2023-05-25T07:26:09.097Z,101741.44
2023-05-25T07:28:39.420Z,101732.16
2023-05-25T07:31:07.360Z,101736.31
2023-05-25T07:33:38.062Z,101729.25
2023-05-25T07:36:07.352Z,101736.16
2023-05-25T07:38:47.926Z,101738.94
2023-05-25T07:41:20.692Z,101737.28
2023-05-25T07:43:50.634Z,101732.63
2023-05-25T07:46:26.907Z,101736.56
2023-05-25T07:49:06.414Z,101734.13
2023-05-25T07:51:34.120Z,101755.53
2023-05-25T07:54:07.156Z,101744.41
2023-05-25T07:56:34.421Z,101752.69
2023-05-25T07:59:09.312Z,101754.44
2023-05-25T08:01:45.361Z,101752.13
2023-05-25T08:04:19.159Z,101751.66
2023-05-25T08:06:50.374Z,101756.16
2023-05-25T08:09:23.653Z,101754.31
2023-05-25T08:12:12.758Z,101758.22
2023-05-25T08:14:45.047Z,101756.22
2023-05-25T08:17:12.506Z,101749.81
2023-05-25T08:19:40.043Z,101744.97
2023-05-25T08:22:07.724Z,101749.28
2023-05-25T08:24:35.167Z,101746.53
2023-05-25T08:27:03.622Z,101750.31
2023-05-25T08:29:31.386Z,101744.28
2023-05-25T08:31:58.849Z,101753.59
2023-05-25T08:34:26.854Z,101754.94
2023-05-25T08:37:05.323Z,101742.72
2023-05-25T08:39:39.242Z,101755.31
2023-05-25T08:42:12.643Z,101752.47
2023-05-25T08:44:43.177Z,101750.78
2023-05-25T08:51:43.669Z,101750.38
2023-05-25T08:54:15.387Z,101749.91
2023-05-25T08:56:53.301Z,101753.41
2023-05-25T08:59:57.558Z,101755.91
2023-05-25T09:02:53.450Z,101759.22
2023-05-25T09:05:29.026Z,101759.31
2023-05-25T09:07:57.713Z,101759.41
2023-05-25T09:10:34.798Z,101754.91
2023-05-25T09:13:16.621Z,101751.47
2023-05-25T09:15:49.586Z,101752.47
2023-05-25T09:18:17.101Z,101741.09
2023-05-25T09:20:47.645Z,101750.75
2023-05-25T09:23:21.819Z,101750.03
2023-05-25T09:25:50.966Z,101756.50
2023-05-25T09:28:27.324Z,101760.28
2023-05-25T09:31:00.983Z,101765.91
2023-05-25T09:33:31.858Z,101755.06
2023-05-25T09:35:59.440Z,101751.00
2023-05-25T09:38:27.224Z,101756.91
2023-05-25T09:40:54.743Z,101751.91
2023-05-25T09:43:39.198Z,101751.56
2023-05-25T09:46:08.930Z,101752.22
2023-05-25T09:48:38.379Z,101751.88
2023-05-25T09:51:14.782Z,101756.44
2023-05-25T09:53:46.435Z,101769.34
2023-05-25T09:56:17.352Z,101770.69
2023-05-25T09:58:54.210Z,101773.97
2023-05-25T10:01:25.218Z,101770.28
2023-05-25T10:04:03.543Z,101773.34
2023-05-25T10:06:33.899Z,101774.28
2023-05-25T10:09:05.349Z,101765.38
2023-05-25T10:11:37.388Z,101769.25
2023-05-25T10:14:11.333Z,101772.50
2023-05-25T10:16:41.454Z,101770.00
2023-05-25T10:19:42.739Z,101778.38
2023-05-25T10:22:40.076Z,101777.38
2023-05-25T10:25:54.804Z,101769.81
2023-05-25T10:28:39.928Z,101782.00
2023-05-25T10:31:13.674Z,101777.13
2023-05-25T10:33:41.460Z,101779.06
2023-05-25T10:36:18.161Z,101778.44
2023-05-25T10:38:46.221Z,101768.84
2023-05-25T10:41:25.090Z,101782.19
2023-05-25T10:43:53.518Z,101771.47
2023-05-25T10:46:24.300Z,101771.75
2023-05-25T10:49:11.517Z,101769.78
2023-05-25T10:51:40.988Z,101768.25
2023-05-25T10:54:08.408Z,101772.91
2023-05-25T10:56:38.924Z,101768.00
2023-05-25T10:59:13.084Z,101762.28
2023-05-25T11:01:53.423Z,101761.84
2023-05-25T11:04:20.597Z,101762.03
2023-05-25T11:06:48.007Z,101764.22
2023-05-25T11:09:40.970Z,101761.16
2023-05-25T11:12:08.680Z,101763.34
2023-05-25T11:14:42.749Z,101761.03
2023-05-25T11:17:21.617Z,101754.69
2023-05-25T11:20:02.326Z,101766.34
2023-05-25T11:22:36.378Z,101764.44
2023-05-25T11:25:42.990Z,101756.22
2023-05-25T11:28:13.837Z,101761.94
2023-05-25T11:30:44.498Z,101764.69
2023-05-25T11:33:11.966Z,101763.69
2023-05-25T11:35:45.779Z,101771.56
2023-05-25T11:38:13.365Z,101768.13
2023-05-25T11:40:40.860Z,101776.00
2023-05-25T11:43:09.753Z,101769.66
2023-05-25T11:45:52.466Z,101758.47
2023-05-25T11:48:35.919Z,101765.56
2023-05-25T11:51:07.304Z,101765.31
2023-05-25T11:53:49.467Z,101765.75
2023-05-25T11:56:35.905Z,101762.66
2023-05-25T11:59:12.676Z,101757.78
2023-05-25T12:01:40.354Z,101752.34
2023-05-25T12:07:28.235Z,101755.56
2023-05-25T12:10:26.123Z,101752.41
2023-05-25T12:12:58.215Z,101759.59
2023-05-25T12:15:40.740Z,101753.06
2023-05-25T12:18:11.293Z,101756.78
2023-05-25T12:20:44.757Z,101755.22
2023-05-25T12:23:18.712Z,101757.34
2023-05-25T12:25:50.675Z,101767.91
2023-05-25T12:28:23.904Z,101763.38
2023-05-25T12:30:52.336Z,101762.44
2023-05-25T12:33:28.311Z,101765.63
2023-05-25T12:35:58.135Z,101754.03
2023-05-25T12:38:25.580Z,101758.44
2023-05-25T12:41:12.759Z,101764.63
2023-05-25T12:43:45.127Z,101759.72
2023-05-25T12:46:24.792Z,101759.84
2023-05-25T12:48:56.254Z,101752.63
2023-05-25T12:51:40.667Z,101750.91
2023-05-25T12:54:42.410Z,101749.69
2023-05-25T12:57:53.071Z,101739.56
2023-05-25T13:00:27.321Z,101746.84
2023-05-25T13:02:55.795Z,101743.59
2023-05-25T13:05:37.159Z,101747.91
2023-05-25T13:08:06.796Z,101736.56
2023-05-25T13:10:38.986Z,101727.63
2023-05-25T13:13:11.233Z,101724.59
2023-05-25T13:15:38.835Z,101728.28
2023-05-25T13:18:09.293Z,101731.13
2023-05-25T13:20:36.982Z,101725.81
2023-05-25T13:23:07.359Z,101721.69
2023-05-25T13:25:35.288Z,101725.69
2023-05-25T13:28:08.458Z,101718.78
2023-05-25T13:30:35.946Z,101722.78
2023-05-25T13:33:06.087Z,101727.19
2023-05-25T13:35:57.691Z,101726.25
2023-05-25T13:38:29.644Z,101719.22
2023-05-25T13:41:01.502Z,101720.28
2023-05-25T13:43:29.961Z,101719.09
2023-05-25T13:46:00.363Z,101724.88
2023-05-25T13:48:30.282Z,101707.69
2023-05-25T13:50:57.791Z,101704.84
2023-05-25T13:53:27.478Z,101712.47
2023-05-25T13:55:54.996Z,101716.13
2023-05-25T13:58:25.376Z,101708.47
2023-05-25T14:00:52.899Z,101717.41
2023-05-25T14:03:20.435Z,101714.81
2023-05-25T14:05:47.784Z,101721.09
2023-05-25T14:08:20.620Z,101717.72
2023-05-25T14:10:48.094Z,101723.91
2023-05-25T14:13:15.521Z,101714.75
2023-05-25T14:15:44.382Z,101719.28
2023-05-25T14:18:12.004Z,101723.00
2023-05-25T14:20:41.436Z,101717.28
2023-05-25T14:23:10.672Z,101720.41
2023-05-25T14:25:40.104Z,101720.97
2023-05-25T14:28:07.723Z,101721.09
2023-05-25T14:30:35.127Z,101728.28
2023-05-25T14:33:03.889Z,101715.38
2023-05-25T14:35:31.212Z,101722.53
2023-05-25T14:37:58.423Z,101720.72
2023-05-25T14:40:25.812Z,101713.69
2023-05-25T14:42:55.939Z,101714.53
2023-05-25T14:45:23.326Z,101721.13
2023-05-25T14:48:03.970Z,101711.13
2023-05-25T14:50:35.443Z,101713.88
2023-05-25T14:53:04.923Z,101718.06
2023-05-25T14:55:32.393Z,101720.19
2023-05-25T14:57:59.742Z,101723.63
2023-05-25T15:00:27.104Z,101715.56
2023-05-25T15:02:54.740Z,101711.06
2023-05-25T15:05:22.513Z,101708.91
2023-05-25T15:07:49.849Z,101710.06
2023-05-25T15:10:17.183Z,101708.56
2023-05-25T15:12:44.360Z,101710.59
2023-05-25T15:15:12.336Z,101705.59
2023-05-25T15:17:39.724Z,101700.09
2023-05-25T15:20:07.767Z,101690.78
2023-05-25T15:22:35.646Z,101698.47
2023-05-25T15:25:06.260Z,101697.16
2023-05-25T15:27:34.857Z,101692.75
2023-05-25T15:30:02.156Z,101689.06
2023-05-25T15:32:29.295Z,101694.91
2023-05-25T15:34:56.440Z,101692.53
2023-05-25T15:37:23.658Z,101692.94
2023-05-25T15:39:56.097Z,101688.81
2023-05-25T15:42:23.265Z,101690.28
2023-05-25T15:44:50.529Z,101703.81
2023-05-25T15:47:17.814Z,101691.75
2023-05-25T15:49:44.985Z,101701.47
2023-05-25T15:52:17.901Z,101691.47
2023-05-25T15:54:44.997Z,101692.38
2023-05-25T15:57:12.197Z,101702.72
2023-05-25T15:59:48.033Z,101697.78
2023-05-25T16:02:18.175Z,101693.72
2023-05-25T16:04:53.753Z,101701.03
2023-05-25T16:07:20.988Z,101688.97
2023-05-25T16:09:48.178Z,101693.06
2023-05-25T16:12:15.772Z,101694.91
2023-05-25T16:14:44.119Z,101698.06
2023-05-25T16:17:12.393Z,101697.25
2023-05-25T16:19:42.817Z,101687.00
2023-05-25T16:22:10.072Z,101686.03
2023-05-25T16:24:37.735Z,101694.44
2023-05-25T16:27:11.436Z,101696.41
2023-05-25T16:29:39.004Z,101689.94
2023-05-25T16:32:06.773Z,101692.94
2023-05-25T16:34:33.992Z,101681.56
2023-05-25T16:37:01.187Z,101688.47
2023-05-25T16:39:28.576Z,101695.56
2023-05-25T16:41:56.943Z,101691.06
2023-05-25T16:44:27.021Z,101690.16
2023-05-25T16:46:54.224Z,101688.13
2023-05-25T16:49:22.127Z,101689.72
2023-05-25T16:51:51.860Z,101680.97
2023-05-25T16:54:19.120Z,101688.44
2023-05-25T16:56:47.007Z,101687.66
2023-05-25T16:59:16.955Z,101682.00
2023-05-25T17:01:44.347Z,101678.94
2023-05-25T17:04:12.110Z,101677.75
2023-05-25T17:06:39.498Z,101669.63
2023-05-25T17:09:09.659Z,101682.31
2023-05-25T17:11:36.796Z,101680.09
2023-05-25T17:14:09.429Z,101675.84
2023-05-25T17:16:36.738Z,101672.19
2023-05-25T17:19:04.257Z,101670.00
2023-05-25T17:21:32.091Z,101670.50
2023-05-25T17:23:59.381Z,101678.84
2023-05-25T17:26:27.014Z,101673.28
2023-05-25T17:28:56.617Z,101675.22
2023-05-25T17:31:24.095Z,101679.00
2023-05-25T17:33:51.636Z,101677.22
2023-05-25T17:36:19.315Z,101686.19
2023-05-25T17:38:46.590Z,101674.66
2023-05-25T17:41:14.306Z,101691.94
2023-05-25T17:43:41.643Z,101684.41
2023-05-25T17:46:09.282Z,101685.09
2023-05-25T17:48:37.298Z,101691.91
2023-05-25T17:51:07.822Z,101683.22
2023-05-25T17:53:35.082Z,101694.03
2023-05-25T17:56:02.348Z,101697.38
2023-05-25T17:58:32.666Z,101703.72
2023-05-25T18:00:59.991Z,101697.41
2023-05-25T18:03:27.792Z,101695.63
2023-05-25T18:05:55.278Z,101706.31
2023-05-25T18:08:25.370Z,101698.25
2023-05-25T18:10:52.905Z,101706.41
2023-05-25T18:13:20.163Z,101706.97
2023-05-25T18:15:47.480Z,101706.25
2023-05-25T18:18:16.577Z,101703.97
2023-05-25T18:20:43.901Z,101708.50
2023-05-25T18:23:13.188Z,101705.38
2023-05-25T18:25:40.467Z,101707.63
2023-05-25T18:28:07.601Z,101703.13
2023-05-25T18:30:34.801Z,101702.03
2023-05-25T18:33:01.931Z,101709.00
2023-05-25T18:35:29.093Z,101707.06
2023-05-25T18:37:56.251Z,101711.69
2023-05-25T18:40:23.370Z,101713.44
2023-05-25T18:42:53.280Z,101710.56
2023-05-25T18:45:20.708Z,101715.88
2023-05-25T18:47:48.186Z,101716.09
2023-05-25T18:50:15.786Z,101719.69
2023-05-25T18:52:43.227Z,101711.84
2023-05-25T18:55:10.677Z,101714.53
2023-05-25T18:57:37.900Z,101718.31
2023-05-25T19:00:08.721Z,101713.63
2023-05-25T19:02:36.695Z,101721.94
2023-05-25T19:05:04.159Z,101726.44
2023-05-25T19:07:31.439Z,101726.31
2023-05-25T19:09:58.772Z,101729.91
2023-05-25T19:12:26.219Z,101737.88
2023-05-25T19:14:55.226Z,101734.56
2023-05-25T19:17:22.533Z,101735.25
2023-05-25T19:19:52.878Z,101734.56
2023-05-25T19:22:20.263Z,101739.56
2023-05-25T19:24:50.683Z,101741.16
2023-05-25T19:27:27.618Z,101738.78
2023-05-25T19:29:54.934Z,101737.81
2023-05-25T19:32:32.599Z,101732.56
2023-05-25T19:34:59.786Z,101744.88
2023-05-25T19:37:28.111Z,101749.19
2023-05-25T19:39:55.609Z,101755.38
2023-05-25T19:42:22.941Z,101755.78
2023-05-25T19:44:53.201Z,101761.50
2023-05-25T19:47:20.722Z,101763.44
2023-05-25T19:49:48.185Z,101768.19
2023-05-25T19:52:18.212Z,101769.91
2023-05-25T19:54:46.111Z,101760.56
2023-05-25T19:57:13.751Z,101763.75
2023-05-25T19:59:41.150Z,101753.97
2023-05-25T20:02:08.744Z,101765.53
2023-05-25T20:04:39.807Z,101762.94
2023-05-25T20:07:18.263Z,101765.97
2023-05-25T20:09:46.189Z,101765.19
2023-05-25T20:12:14.910Z,101764.75
2023-05-25T20:14:43.593Z,101775.13
2023-05-25T20:17:10.999Z,101772.94
2023-05-25T20:19:39.240Z,101772.41
2023-05-25T20:22:11.402Z,101775.28
2023-05-25T20:24:38.967Z,101783.25
2023-05-25T20:27:06.568Z,101783.69
2023-05-25T20:29:33.989Z,101789.59
2023-05-25T20:32:10.211Z,101790.03
2023-05-25T20:34:37.493Z,101795.75
2023-05-25T20:37:04.891Z,101795.91
2023-05-25T20:39:32.101Z,101785.31
2023-05-25T20:41:59.378Z,101789.56
2023-05-25T20:44:27.228Z,101786.81
2023-05-25T20:46:54.648Z,101787.44
2023-05-25T20:49:23.781Z,101778.63
2023-05-25T20:51:52.394Z,101793.00
2023-05-25T20:54:19.709Z,101792.41
2023-05-25T20:56:47.978Z,101795.91
2023-05-25T20:59:15.325Z,101790.09
2023-05-25T21:01:44.188Z,101795.19
2023-05-25T21:04:11.565Z,101787.44
2023-05-25T21:06:38.915Z,101790.69
2023-05-25T21:09:06.479Z,101794.53
2023-05-25T21:11:36.588Z,101785.34
2023-05-25T21:14:03.773Z,101789.06
2023-05-25T21:16:33.411Z,101797.91
2023-05-25T21:19:04.651Z,101797.28
2023-05-25T21:21:34.021Z,101798.53
2023-05-25T21:24:02.855Z,101797.19
2023-05-25T21:26:32.957Z,101790.00
2023-05-25T21:29:00.319Z,101794.88
2023-05-25T21:31:27.846Z,101802.44
2023-05-25T21:33:59.994Z,101805.22
2023-05-25T21:36:28.230Z,101802.28
2023-05-25T21:39:01.689Z,101809.44
2023-05-25T21:41:32.000Z,101798.25
2023-05-25T21:44:03.184Z,101800.69
2023-05-25T21:46:53.887Z,101803.19
2023-05-25T21:49:24.278Z,101806.41
2023-05-25T21:51:51.652Z,101803.63
2023-05-25T21:54:19.584Z,101810.53
2023-05-25T21:57:01.931Z,101813.47
2023-05-25T21:59:29.346Z,101811.22
2023-05-25T22:01:56.840Z,101825.78
2023-05-25T22:04:29.798Z,101824.38
2023-05-25T22:07:01.595Z,101823.78
2023-05-25T22:09:44.377Z,101826.16
2023-05-25T22:12:22.890Z,101829.94
2023-05-25T22:14:56.215Z,101824.38
2023-05-25T22:17:23.499Z,101827.22
2023-05-25T22:20:06.447Z,101827.81
2023-05-25T22:22:48.519Z,101828.38
2023-05-25T22:25:22.391Z,101837.91
2023-05-25T22:27:56.085Z,101838.75
2023-05-25T22:30:23.964Z,101833.59
2023-05-25T22:32:56.885Z,101833.38
2023-05-25T22:35:24.838Z,101835.91
2023-05-25T22:38:01.389Z,101841.50
2023-05-25T22:40:29.296Z,101831.13
2023-05-25T22:42:56.791Z,101835.81
2023-05-25T22:45:38.401Z,101837.00
2023-05-25T22:48:12.449Z,101832.97
2023-05-25T22:50:40.264Z,101836.72
2023-05-25T22:53:10.135Z,101840.09
2023-05-25T22:55:46.517Z,101837.00
2023-05-25T22:58:18.383Z,101840.59
2023-05-25T23:00:45.655Z,101847.06
2023-05-25T23:03:25.251Z,101847.91
2023-05-25T23:06:02.769Z,101843.16
2023-05-25T23:08:29.988Z,101843.16
2023-05-25T23:11:03.180Z,101846.59
2023-05-25T23:13:31.017Z,101838.34
2023-05-25T23:15:58.287Z,101846.13
2023-05-25T23:18:25.561Z,101847.25
2023-05-25T23:20:53.026Z,101839.94
2023-05-25T23:23:20.768Z,101842.50
2023-05-25T23:25:48.559Z,101840.47
2023-05-25T23:28:17.437Z,101837.66
2023-05-25T23:30:44.929Z,101834.28
2023-05-25T23:33:18.435Z,101843.34
2023-05-25T23:35:53.461Z,101837.22
2023-05-25T23:38:26.273Z,101834.81
2023-05-25T23:41:00.063Z,101840.25
2023-05-25T23:43:27.530Z,101846.53
2023-05-25T23:46:00.679Z,101841.34
2023-05-25T23:48:34.795Z,101843.16
2023-05-25T23:51:03.373Z,101846.69
2023-05-25T23:53:31.156Z,101836.59
2023-05-25T23:55:58.504Z,101841.72
2023-05-25T23:58:28.745Z,101835.44
